Time;durP1;ratioP1;P1;durP2;ratioP2;P2;SDS_P1;SDS_P2;PMS_P1;PMS_P2;Temp;Humidity;BMP_temperature;BMP_pressure;BME280_temperature;BME280_humidity;BME280_pressure;Samples;Min_cycle;Max_cycle;Signal;HPM_P1;HPM_P2
2022/05/06 00:01:22;;;;;;;25.60;14.38;;;11.90;99.90;;;;;;5101890;27;20517;-77
2022/05/06 00:03:48;;;;;;;24.45;14.38;;;11.80;99.90;;;;;;5153351;27;20039;-77
2022/05/06 00:06:13;;;;;;;25.77;13.68;;;11.80;99.90;;;;;;5170787;27;20180;-77
2022/05/06 00:08:39;;;;;;;19.67;12.55;;;11.70;99.90;;;;;;5117814;27;20176;-77
2022/05/06 00:11:04;;;;;;;20.05;11.95;;;11.70;99.90;;;;;;5135804;27;20079;-77
2022/05/06 00:13:31;;;;;;;17.65;11.40;;;11.70;99.90;;;;;;5170210;27;20047;-77
2022/05/06 00:15:56;;;;;;;18.75;11.57;;;11.60;99.90;;;;;;5118282;27;20039;-77
2022/05/06 00:18:22;;;;;;;25.05;12.88;;;11.60;99.90;;;;;;5170598;27;20088;-77
2022/05/06 00:20:48;;;;;;;21.17;12.43;;;11.60;99.90;;;;;;5135537;27;20109;-77
2022/05/06 00:23:13;;;;;;;25.70;12.30;;;11.50;99.90;;;;;;5135566;27;20402;-77
2022/05/06 00:25:39;;;;;;;20.60;11.35;;;11.50;99.90;;;;;;5135530;27;20070;-77
2022/05/06 00:28:05;;;;;;;21.65;12.55;;;11.60;99.90;;;;;;5118454;27;20494;-78
2022/05/06 00:30:31;;;;;;;20.88;11.68;;;11.60;99.90;;;;;;5135282;27;20134;-77
2022/05/06 00:32:56;;;;;;;19.08;11.95;;;11.60;99.90;;;;;;5169680;27;20043;-77
2022/05/06 00:35:22;;;;;;;24.83;13.23;;;11.50;99.90;;;;;;5170342;27;20051;-77
2022/05/06 00:37:48;;;;;;;21.77;12.68;;;11.60;99.90;;;;;;5170158;27;20047;-77
2022/05/06 00:40:13;;;;;;;27.50;14.00;;;11.60;99.90;;;;;;5170107;27;20436;-77
2022/05/06 00:42:39;;;;;;;26.35;13.70;;;11.50;99.90;;;;;;5118118;27;20043;-77
2022/05/06 00:45:05;;;;;;;22.77;13.07;;;11.50;99.90;;;;;;5152140;27;20043;-77
2022/05/06 00:47:33;;;;;;;27.38;14.30;;;11.50;99.90;;;;;;5135118;27;20123;-77
2022/05/06 00:50:00;;;;;;;27.98;15.20;;;11.50;99.90;;;;;;5134965;27;20047;-78
2022/05/06 00:52:26;;;;;;;26.92;14.30;;;11.40;99.90;;;;;;5134902;27;20087;-77
2022/05/06 00:54:52;;;;;;;24.65;14.02;;;11.40;99.90;;;;;;5169448;27;20515;-77
2022/05/06 00:57:18;;;;;;;27.48;13.88;;;11.40;99.90;;;;;;5169514;27;20061;-77
2022/05/06 01:02:28;;;;;;;23.65;13.95;;;11.30;99.90;;;;;;5135105;27;20051;-77
2022/05/06 01:04:54;;;;;;;24.83;13.57;;;11.30;99.90;;;;;;5152116;27;20047;-77
2022/05/06 01:07:21;;;;;;;22.15;11.88;;;11.30;99.90;;;;;;5134818;27;20053;-77
2022/05/06 01:09:49;;;;;;;25.05;13.32;;;11.30;99.90;;;;;;5134440;27;20047;-77
2022/05/06 01:12:15;;;;;;;25.50;13.60;;;11.20;99.90;;;;;;5117855;27;20051;-77
2022/05/06 01:14:41;;;;;;;21.50;11.93;;;11.20;99.90;;;;;;5133977;27;20060;-77
2022/05/06 01:17:09;;;;;;;21.73;11.27;;;11.10;99.90;;;;;;5169013;27;20047;-77
2022/05/06 01:19:35;;;;;;;20.17;12.15;;;11.00;99.90;;;;;;5134225;27;20124;-77
2022/05/06 01:22:01;;;;;;;18.08;11.35;;;11.10;99.90;;;;;;5134541;27;20409;-77
2022/05/06 01:24:27;;;;;;;17.55;11.20;;;11.00;99.90;;;;;;5168837;27;20371;-77
2022/05/06 01:27:07;;;;;;;17.50;10.52;;;11.00;99.90;;;;;;5118045;27;20072;-77
2022/05/06 01:29:32;;;;;;;16.90;10.82;;;10.90;99.90;;;;;;5134356;27;20108;-77
2022/05/06 01:32:00;;;;;;;19.92;10.90;;;10.90;99.90;;;;;;5134068;27;20489;-77
2022/05/06 01:34:28;;;;;;;17.20;10.75;;;10.90;99.90;;;;;;5134122;27;20516;-77
2022/05/06 01:36:57;;;;;;;14.85;9.98;;;10.90;99.90;;;;;;5134101;27;20490;-78
2022/05/06 01:39:28;;;;;;;18.83;10.65;;;11.00;99.90;;;;;;5134224;27;20091;-77
2022/05/06 01:41:58;;;;;;;16.27;10.52;;;11.00;99.90;;;;;;5134118;27;20051;-77
2022/05/06 01:44:26;;;;;;;16.95;10.73;;;10.90;99.90;;;;;;5133569;27;20455;-77
2022/05/06 01:46:56;;;;;;;17.92;10.82;;;10.80;99.90;;;;;;5134174;27;20086;-77
2022/05/06 01:49:23;;;;;;;17.48;9.98;;;10.90;99.90;;;;;;5133916;27;20054;-77
2022/05/06 01:51:50;;;;;;;14.77;8.95;;;11.00;99.90;;;;;;5133745;27;20078;-77
2022/05/06 01:54:16;;;;;;;13.45;8.40;;;10.90;99.90;;;;;;5133472;27;20055;-77
2022/05/06 01:56:46;;;;;;;11.05;6.55;;;10.90;99.90;;;;;;5134130;27;20057;-77
2022/05/06 01:59:12;;;;;;;9.35;5.55;;;10.90;99.90;;;;;;5133764;27;20043;-77
2022/05/06 02:01:38;;;;;;;8.98;5.28;;;10.80;99.90;;;;;;5116877;27;20050;-77
2022/05/06 02:06:47;;;;;;;12.55;6.63;;;10.70;99.90;;;;;;5119192;27;20160;-77
2022/05/06 02:09:15;;;;;;;13.73;7.03;;;10.60;99.90;;;;;;5134138;27;20130;-77
2022/05/06 02:11:40;;;;;;;14.13;7.57;;;10.50;99.90;;;;;;5133553;27;20043;-77
2022/05/06 02:14:06;;;;;;;17.80;9.38;;;10.40;99.90;;;;;;5133326;27;20123;-77
2022/05/06 02:16:32;;;;;;;15.98;9.23;;;10.50;99.90;;;;;;5133420;27;20047;-77
2022/05/06 02:18:57;;;;;;;17.42;9.70;;;10.50;99.90;;;;;;5133689;27;20082;-77
2022/05/06 02:21:23;;;;;;;15.07;9.15;;;10.50;99.90;;;;;;5133181;27;20047;-77
2022/05/06 02:23:49;;;;;;;13.75;8.85;;;10.50;99.90;;;;;;5116367;27;20047;-77
2022/05/06 02:26:14;;;;;;;14.52;8.98;;;10.40;99.90;;;;;;5133599;28;20043;-77
2022/05/06 02:28:40;;;;;;;16.05;9.13;;;10.40;99.90;;;;;;5133606;27;20047;-77
2022/05/06 02:33:50;;;;;;;18.48;11.18;;;10.30;99.90;;;;;;5123086;27;20054;-77
2022/05/06 02:36:16;;;;;;;22.33;12.40;;;10.30;99.90;;;;;;5137663;27;20051;-77
2022/05/06 02:38:42;;;;;;;17.73;10.65;;;10.40;99.90;;;;;;5137365;27;20042;-77
2022/05/06 02:41:08;;;;;;;19.92;12.65;;;10.40;99.90;;;;;;5172298;27;20043;-77
2022/05/06 02:43:35;;;;;;;25.83;13.95;;;10.30;99.90;;;;;;5137587;27;20090;-77
2022/05/06 02:46:01;;;;;;;26.00;14.30;;;10.30;99.90;;;;;;5137254;27;20087;-77
2022/05/06 02:48:27;;;;;;;24.05;13.75;;;10.40;99.90;;;;;;5137469;27;20452;-77
2022/05/06 02:50:52;;;;;;;28.85;14.93;;;10.40;99.90;;;;;;5120404;27;20390;-78
2022/05/06 02:53:21;;;;;;;25.10;14.70;;;10.40;99.90;;;;;;5171494;27;20421;-77
2022/05/06 02:55:47;;;;;;;29.45;15.95;;;10.40;99.90;;;;;;5172075;27;20393;-77
2022/05/06 02:58:13;;;;;;;26.85;14.52;;;10.50;99.90;;;;;;5137078;27;20055;-77
2022/05/06 03:00:39;;;;;;;26.75;15.52;;;10.40;99.90;;;;;;5137199;27;20105;-77
2022/05/06 03:03:05;;;;;;;23.17;13.55;;;10.30;99.90;;;;;;5172018;27;20469;-77
2022/05/06 03:05:32;;;;;;;23.75;13.55;;;10.30;99.90;;;;;;5137079;27;20054;-77
2022/05/06 03:07:58;;;;;;;21.60;12.13;;;10.40;99.90;;;;;;5137113;27;20082;-77
2022/05/06 03:10:24;;;;;;;20.65;11.60;;;10.50;99.90;;;;;;5136867;27;20151;-77
2022/05/06 03:12:50;;;;;;;19.17;11.80;;;10.50;99.90;;;;;;5136776;27;20039;-77
2022/05/06 03:15:15;;;;;;;21.10;11.65;;;10.40;99.90;;;;;;5136656;27;20143;-77
2022/05/06 03:17:41;;;;;;;22.25;12.20;;;10.40;99.90;;;;;;5154214;27;20176;-77
2022/05/06 03:20:08;;;;;;;47.22;14.85;;;10.30;99.90;;;;;;5138022;27;20054;-77
2022/05/06 03:22:47;;;;;;;23.65;12.57;;;10.40;99.90;;;;;;5136702;27;20062;-77
2022/05/06 03:25:14;;;;;;;18.45;10.48;;;10.30;99.90;;;;;;5136976;27;20084;-77
2022/05/06 03:30:30;;;;;;;13.57;7.68;;;10.20;99.90;;;;;;5136816;27;20089;-77
2022/05/06 03:32:58;;;;;;;17.88;8.70;;;10.10;99.90;;;;;;5136526;27;20043;-77
2022/05/06 03:35:26;;;;;;;20.92;10.57;;;10.10;99.90;;;;;;5136617;27;20126;-77
2022/05/06 03:37:52;;;;;;;22.25;11.02;;;10.20;99.90;;;;;;5136565;27;20043;-78
2022/05/06 03:40:18;;;;;;;27.67;12.95;;;10.30;99.90;;;;;;5171499;27;20441;-77
2022/05/06 03:42:44;;;;;;;25.83;12.68;;;10.30;99.90;;;;;;5153874;27;20054;-77
2022/05/06 03:45:10;;;;;;;35.65;12.90;;;10.40;99.90;;;;;;5170666;27;20047;-77
2022/05/06 03:47:36;;;;;;;53.88;16.60;;;10.40;99.90;;;;;;5119091;27;20055;-77
2022/05/06 03:52:49;;;;;;;50.17;18.25;;;10.70;99.90;;;;;;5136201;27;20398;-77
2022/05/06 03:55:15;;;;;;;59.85;18.20;;;10.80;99.90;;;;;;5136031;27;20505;-77
2022/05/06 03:57:42;;;;;;;54.08;17.92;;;10.80;99.90;;;;;;5170821;27;20043;-77
2022/05/06 04:00:12;;;;;;;51.30;20.42;;;10.90;99.90;;;;;;5135885;27;20121;-77
2022/05/06 04:02:38;;;;;;;55.35;20.55;;;11.00;99.90;;;;;;5135972;27;20059;-77
2022/05/06 04:05:05;;;;;;;70.57;21.85;;;11.10;99.90;;;;;;5136027;27;20043;-77
2022/05/06 04:07:31;;;;;;;55.78;23.08;;;11.10;99.90;;;;;;5135884;27;20510;-77
2022/05/06 04:09:56;;;;;;;66.15;23.73;;;11.20;99.90;;;;;;5135606;27;20055;-77
2022/05/06 04:12:23;;;;;;;80.70;26.55;;;11.30;99.90;;;;;;5170447;27;20050;-77
2022/05/06 04:14:52;;;;;;;55.20;24.50;;;11.30;99.90;;;;;;5135815;27;20051;-77
2022/05/06 04:17:20;;;;;;;66.93;25.42;;;11.30;99.90;;;;;;5135613;27;20070;-77
2022/05/06 04:25:16;;;;;;;83.80;30.45;;;11.60;99.90;;;;;;5135937;27;20108;-77
2022/05/06 04:27:45;;;;;;;74.20;30.40;;;11.80;99.90;;;;;;5170205;27;20047;-77
2022/05/06 04:30:12;;;;;;;64.85;30.48;;;11.90;99.90;;;;;;5169769;27;20122;-77
2022/05/06 04:32:38;;;;;;;65.63;30.67;;;11.90;99.90;;;;;;5135336;27;20083;-77
2022/05/06 04:35:06;;;;;;;60.05;30.70;;;11.90;99.90;;;;;;5135466;27;20051;-77
2022/05/06 04:37:35;;;;;;;74.00;30.17;;;11.90;99.90;;;;;;5135306;27;20124;-77
2022/05/06 04:40:01;;;;;;;53.17;28.13;;;11.90;99.90;;;;;;5135446;27;20081;-77
2022/05/06 04:42:27;;;;;;;47.97;26.10;;;12.00;99.90;;;;;;5135036;27;20055;-77
2022/05/06 04:44:53;;;;;;;97.25;30.70;;;12.00;99.90;;;;;;5135029;27;20051;-77
2022/05/06 04:47:19;;;;;;;146.23;28.13;;;11.90;99.90;;;;;;5170065;27;20355;-77
2022/05/06 04:49:45;;;;;;;127.68;30.60;;;11.60;99.90;;;;;;5118113;27;20043;-76
2022/05/06 04:52:10;;;;;;;85.50;27.48;;;11.20;99.90;;;;;;5152437;27;20039;-77
2022/05/06 04:54:36;;;;;;;68.85;25.00;;;11.10;99.90;;;;;;5134188;27;20055;-76
2022/05/06 04:57:02;;;;;;;66.07;23.50;;;11.30;99.90;;;;;;5134767;27;20398;-77
2022/05/06 04:59:28;;;;;;;127.90;30.30;;;11.30;99.90;;;;;;5134718;27;20054;-77
2022/05/06 05:01:54;;;;;;;88.90;27.88;;;11.20;99.90;;;;;;5135736;27;20047;-76
2022/05/06 05:04:19;;;;;;;86.22;27.42;;;11.20;99.90;;;;;;5169338;27;20047;-77
2022/05/06 05:06:45;;;;;;;139.38;30.15;;;11.10;99.90;;;;;;5169486;27;20051;-76
2022/05/06 05:09:11;;;;;;;67.72;25.27;;;11.10;99.90;;;;;;5169527;27;20043;-77
2022/05/06 05:11:37;;;;;;;78.80;26.70;;;11.20;99.90;;;;;;5117685;27;20043;-77
2022/05/06 05:14:06;;;;;;;89.22;27.45;;;11.30;99.90;;;;;;5134169;27;20092;-77
2022/05/06 05:16:32;;;;;;;81.00;26.27;;;11.50;99.90;;;;;;5118535;27;20047;-77
2022/05/06 05:18:58;;;;;;;160.40;31.60;;;11.60;99.90;;;;;;5134349;27;20394;-77
2022/05/06 05:21:23;;;;;;;189.95;32.50;;;11.40;99.90;;;;;;5169408;27;20052;-76
2022/05/06 05:23:49;;;;;;;86.75;27.73;;;11.00;99.90;;;;;;5151473;27;20394;-76
2022/05/06 05:26:15;;;;;;;96.63;28.23;;;10.60;99.90;;;;;;5168855;27;20105;-78
2022/05/06 05:28:40;;;;;;;145.55;31.55;;;10.70;99.90;;;;;;5117281;27;20111;-77
2022/05/06 05:31:06;;;;;;;210.07;36.70;;;10.90;99.90;;;;;;5117140;27;20133;-77
2022/05/06 05:33:32;;;;;;;120.28;32.65;;;10.90;99.90;;;;;;5133882;27;20042;-77
2022/05/06 05:35:59;;;;;;;227.00;35.10;;;10.90;99.90;;;;;;5168762;27;20051;-77
2022/05/06 05:38:25;;;;;;;227.55;33.05;;;11.00;99.90;;;;;;5134041;27;20500;-76
2022/05/06 05:40:50;;;;;;;186.80;34.10;;;10.80;99.90;;;;;;5168613;27;20042;-78
2022/05/06 05:48:44;;;;;;;123.97;35.03;;;10.90;99.90;;;;;;5154050;27;20058;-77
2022/05/06 05:51:10;;;;;;;356.85;43.60;;;11.40;99.90;;;;;;5168636;27;20047;-77
2022/05/06 05:53:36;;;;;;;278.80;43.53;;;11.60;99.90;;;;;;5115909;27;20115;-76
2022/05/06 05:56:02;;;;;;;258.10;36.55;;;11.60;99.90;;;;;;5134101;27;20051;-77
2022/05/06 05:58:28;;;;;;;134.27;36.25;;;11.60;99.90;;;;;;5133855;27;20363;-77
2022/05/06 06:00:54;;;;;;;105.13;33.97;;;11.50;99.90;;;;;;5150968;27;20088;-77
2022/05/06 06:03:19;;;;;;;219.00;42.67;;;11.60;99.90;;;;;;5133844;27;20051;-77
2022/05/06 06:05:45;;;;;;;179.43;41.03;;;11.80;99.90;;;;;;5167916;27;20046;-77
2022/05/06 06:08:11;;;;;;;283.92;45.13;;;11.60;99.90;;;;;;5167945;27;20530;-77
2022/05/06 06:10:37;;;;;;;182.68;42.50;;;11.70;99.90;;;;;;5116606;27;20047;-76
2022/05/06 06:13:04;;;;;;;203.32;46.35;;;11.40;99.90;;;;;;5167835;27;20535;-80
2022/05/06 06:15:31;;;;;;;165.32;47.25;;;11.20;99.90;;;;;;5130952;27;20035;-77
2022/05/06 06:17:56;;;;;;;215.32;50.72;;;11.20;99.90;;;;;;5099258;27;20084;-77
2022/05/06 06:20:23;;;;;;;337.45;58.40;;;11.00;99.90;;;;;;5168151;27;20047;-77
2022/05/06 06:22:50;;;;;;;168.50;47.60;;;11.20;99.90;;;;;;5116431;27;20498;-77
2022/05/06 06:25:15;;;;;;;108.07;41.47;;;11.00;99.90;;;;;;5095175;28;20054;-77
2022/05/06 06:27:43;;;;;;;187.32;48.75;;;11.10;99.90;;;;;;5147206;27;20051;-77
2022/05/06 06:30:10;;;;;;;196.68;50.63;;;11.20;99.90;;;;;;5113147;28;20051;-77
2022/05/06 06:32:36;;;;;;;210.50;49.58;;;11.10;99.90;;;;;;5095698;28;20043;-76
2022/05/06 06:35:02;;;;;;;160.60;48.67;;;11.10;99.90;;;;;;5130575;28;20064;-78
2022/05/06 06:37:28;;;;;;;105.13;40.70;;;11.20;99.90;;;;;;5133274;28;20050;-77
2022/05/06 06:39:54;;;;;;;104.60;39.83;;;11.50;99.90;;;;;;5168661;27;20051;-77
2022/05/06 06:42:19;;;;;;;160.25;42.47;;;11.80;99.90;;;;;;5168484;27;20474;-76
2022/05/06 06:44:45;;;;;;;95.35;36.97;;;12.00;99.90;;;;;;5160887;27;20048;-77
2022/05/06 06:47:12;;;;;;;124.88;42.08;;;12.10;99.90;;;;;;5156075;27;20036;-77
2022/05/06 06:49:38;;;;;;;122.70;39.85;;;12.10;99.90;;;;;;5132108;28;20122;-77
2022/05/06 06:52:04;;;;;;;93.68;36.08;;;12.20;99.90;;;;;;5115073;28;20122;-77
2022/05/06 06:54:30;;;;;;;88.88;35.22;;;12.10;99.90;;;;;;5146652;27;20405;-77
2022/05/06 06:56:55;;;;;;;97.53;36.78;;;12.10;99.90;;;;;;5155921;27;20047;-77
2022/05/06 06:59:21;;;;;;;71.13;32.58;;;12.20;99.90;;;;;;5167493;27;20062;-77
2022/05/06 07:01:47;;;;;;;63.03;29.98;;;12.40;99.90;;;;;;5153704;27;20047;-77
2022/05/06 07:04:13;;;;;;;64.30;30.60;;;12.60;99.90;;;;;;5129680;27;20047;-75
2022/05/06 07:12:09;;;;;;;61.72;29.52;;;12.80;99.90;;;;;;5132693;28;20046;-75
2022/05/06 07:14:36;;;;;;;87.88;33.50;;;13.00;99.90;;;;;;5132276;27;20051;-77
2022/05/06 07:17:02;;;;;;;68.60;30.92;;;13.20;99.90;;;;;;5132367;27;20054;-77
2022/05/06 07:19:28;;;;;;;68.07;31.30;;;13.30;99.90;;;;;;5136833;27;20047;-76
2022/05/06 07:21:54;;;;;;;74.45;32.83;;;13.20;99.90;;;;;;5171513;27;20159;-76
2022/05/06 07:24:21;;;;;;;84.65;33.65;;;13.30;99.90;;;;;;5171635;27;20054;-74
2022/05/06 07:26:47;;;;;;;70.55;30.58;;;13.20;99.90;;;;;;5137201;27;20081;-71
2022/05/06 07:29:13;;;;;;;82.28;32.75;;;13.30;99.90;;;;;;5141599;27;20047;-75
2022/05/06 07:31:39;;;;;;;77.07;32.00;;;13.30;99.90;;;;;;5137365;27;20063;-75
2022/05/06 07:34:05;;;;;;;69.47;30.25;;;13.30;99.90;;;;;;5138050;27;20058;-74
2022/05/06 07:36:31;;;;;;;80.57;33.38;;;13.30;99.90;;;;;;5137662;27;20047;-75
2022/05/06 07:38:56;;;;;;;89.45;35.25;;;13.30;99.90;;;;;;5119401;27;20062;-75
2022/05/06 07:41:22;;;;;;;92.75;34.28;;;13.40;99.90;;;;;;5171283;27;20092;-74
2022/05/06 07:43:48;;;;;;;82.07;34.10;;;13.40;99.90;;;;;;5118883;27;20482;-75
2022/05/06 07:46:14;;;;;;;78.18;32.60;;;13.50;99.90;;;;;;5135598;27;20054;-75
2022/05/06 07:48:39;;;;;;;78.45;32.50;;;13.60;99.90;;;;;;5119198;27;20043;-74
2022/05/06 07:51:05;;;;;;;70.60;29.80;;;13.70;99.90;;;;;;5136102;27;20050;-75
2022/05/06 07:53:31;;;;;;;58.72;27.80;;;13.60;99.90;;;;;;5135815;27;20082;-75
2022/05/06 07:55:57;;;;;;;58.35;26.40;;;13.70;99.90;;;;;;5136968;27;20516;-76
2022/05/06 07:58:23;;;;;;;51.80;24.27;;;13.80;99.90;;;;;;5135714;27;20506;-76
2022/05/06 08:00:50;;;;;;;45.45;20.90;;;14.00;99.90;;;;;;5117871;27;20126;-76
2022/05/06 08:06:01;;;;;;;37.92;18.38;;;14.20;99.90;;;;;;5135854;27;20521;-75
2022/05/06 08:08:27;;;;;;;33.63;17.30;;;14.40;99.90;;;;;;5135651;27;20468;-76
2022/05/06 08:10:56;;;;;;;37.45;18.88;;;14.40;99.90;;;;;;5135648;27;20047;-75
2022/05/06 08:13:22;;;;;;;31.42;16.10;;;14.50;99.90;;;;;;5135003;27;20046;-75
2022/05/06 08:15:49;;;;;;;30.38;16.80;;;14.60;99.90;;;;;;5134954;27;20047;-76
2022/05/06 08:18:15;;;;;;;25.25;13.60;;;14.90;99.90;;;;;;5118599;27;20047;-76
2022/05/06 08:20:41;;;;;;;27.27;14.57;;;14.70;99.90;;;;;;5136688;27;20046;-76
2022/05/06 08:23:08;;;;;;;26.20;14.68;;;14.80;99.90;;;;;;5135643;27;20058;-75
2022/05/06 08:25:34;;;;;;;25.48;14.82;;;14.90;99.90;;;;;;5135735;27;20051;-76
2022/05/06 08:28:00;;;;;;;24.48;14.32;;;15.10;99.90;;;;;;5135078;27;20042;-76
2022/05/06 08:30:25;;;;;;;24.67;13.27;;;15.20;99.90;;;;;;5134641;27;20134;-76
2022/05/06 08:32:51;;;;;;;24.50;13.75;;;14.90;99.90;;;;;;5118424;27;20054;-76
2022/05/06 08:35:19;;;;;;;22.63;13.80;;;14.80;99.90;;;;;;5135458;27;20143;-75
2022/05/06 08:37:46;;;;;;;21.15;13.27;;;14.80;99.90;;;;;;5135492;27;20069;-75
2022/05/06 08:40:17;;;;;;;20.75;12.82;;;14.80;99.90;;;;;;5135022;27;20451;-75
2022/05/06 08:42:43;;;;;;;21.08;12.77;;;14.90;99.90;;;;;;5135605;27;20051;-74
2022/05/06 08:50:53;;;;;;;18.58;10.88;;;15.30;99.90;;;;;;5134840;27;20062;-82
2022/05/06 08:53:29;;;;;;;17.23;11.35;;;15.50;99.90;;;;;;5134730;27;20047;-76
2022/05/06 08:55:57;;;;;;;17.38;11.05;;;15.60;99.90;;;;;;5136010;27;20054;-76
2022/05/06 08:58:24;;;;;;;21.08;12.07;;;15.80;99.90;;;;;;5135852;27;20134;-89
2022/05/06 09:00:50;;;;;;;17.15;10.95;;;16.10;99.90;;;;;;5134849;27;20047;-76
2022/05/06 09:03:17;;;;;;;15.00;10.48;;;16.20;99.90;;;;;;5134941;27;20066;-75
2022/05/06 09:05:54;;;;;;;15.77;9.93;;;16.30;99.90;;;;;;5134768;27;20043;-75
2022/05/06 09:08:21;;;;;;;14.68;10.00;;;16.40;99.90;;;;;;5117780;27;20047;-77
2022/05/06 09:11:03;;;;;;;15.45;10.40;;;16.50;99.90;;;;;;5134598;27;20042;-77
2022/05/06 09:13:32;;;;;;;14.93;9.88;;;16.50;99.90;;;;;;5134474;27;20606;-77
2022/05/06 09:19:13;;;;;;;12.73;8.73;;;16.40;99.90;;;;;;5134933;27;20051;-75
2022/05/06 09:22:13;;;;;;;11.40;7.28;;;16.50;99.90;;;;;;5134424;27;20431;-74
2022/05/06 09:24:41;;;;;;;12.27;8.02;;;16.50;99.90;;;;;;5135245;27;20047;-75
2022/05/06 09:27:13;;;;;;;11.55;8.80;;;16.80;99.90;;;;;;5134747;27;20055;-75
2022/05/06 09:29:43;;;;;;;14.20;8.98;;;16.70;99.90;;;;;;5134546;27;20540;-74
2022/05/06 09:32:19;;;;;;;17.00;9.30;;;16.60;99.90;;;;;;5134051;27;20082;-74
2022/05/06 09:34:50;;;;;;;11.93;8.77;;;16.80;99.90;;;;;;5134089;27;20154;-88
2022/05/06 09:37:35;;;;;;;13.70;8.02;;;16.90;99.90;;;;;;5134457;27;20051;-91
2022/05/06 09:40:07;;;;;;;11.43;7.85;;;16.80;99.90;;;;;;5135095;27;20039;-91
2022/05/06 09:42:37;;;;;;;16.63;8.25;;;16.60;99.90;;;;;;5169994;27;20058;-92
2022/05/06 09:45:04;;;;;;;11.73;8.10;;;16.90;99.90;;;;;;5134249;27;20134;-89
2022/05/06 09:47:33;;;;;;;13.07;8.05;;;17.10;99.90;;;;;;5135087;27;20539;-89
2022/05/06 09:50:00;;;;;;;10.38;7.38;;;17.20;99.90;;;;;;5134620;27;20043;-81
2022/05/06 09:52:25;;;;;;;15.95;7.55;;;17.00;99.90;;;;;;5133931;27;20039;-81
2022/05/06 09:54:53;;;;;;;14.18;7.70;;;17.10;99.90;;;;;;5116493;27;20452;-81
2022/05/06 09:57:19;;;;;;;8.30;6.68;;;17.60;99.90;;;;;;5133908;27;20490;-85
2022/05/06 09:59:48;;;;;;;18.35;7.68;;;17.80;99.90;;;;;;5133650;27;20054;-84
2022/05/06 10:02:14;;;;;;;17.35;6.78;;;17.90;99.90;;;;;;5133999;27;20164;-84
2022/05/06 10:04:42;;;;;;;9.07;6.28;;;17.30;99.90;;;;;;5133885;27;20417;-84
2022/05/06 10:07:12;;;;;;;7.70;5.75;;;17.50;99.90;;;;;;5116932;27;20051;-83
2022/05/06 10:10:06;;;;;;;9.27;5.60;;;17.20;99.90;;;;;;5134100;27;20132;-89
2022/05/06 10:12:42;;;;;;;8.52;5.35;;;17.30;99.90;;;;;;5169306;27;20046;-88
2022/05/06 10:15:12;;;;;;;11.05;5.65;;;17.60;99.90;;;;;;5134499;27;20043;-90
2022/05/06 10:17:57;;;;;;;12.48;6.05;;;17.70;99.90;;;;;;5117149;28;20046;-90
2022/05/06 10:20:38;;;;;;;13.55;5.93;;;18.10;99.90;;;;;;5169030;27;20043;-91
2022/05/06 10:23:07;;;;;;;7.32;5.60;;;18.00;99.90;;;;;;5134674;27;20512;-91
2022/05/06 10:25:42;;;;;;;11.50;5.65;;;18.20;99.90;;;;;;5117611;28;20100;-90
2022/05/06 10:34:11;;;;;;;9.57;6.00;;;18.70;99.90;;;;;;5133366;27;20086;-84
2022/05/06 10:36:48;;;;;;;8.27;6.18;;;18.10;99.90;;;;;;5133794;28;20082;-82
2022/05/06 10:39:34;;;;;;;9.93;6.38;;;18.20;99.90;;;;;;5135575;27;20039;-90
2022/05/06 10:42:11;;;;;;;10.00;6.57;;;18.50;99.90;;;;;;5136669;28;20074;-90
2022/05/06 10:44:38;;;;;;;11.05;6.68;;;18.50;99.90;;;;;;5134070;27;20378;-89
2022/05/06 10:47:42;;;;;;;8.80;6.32;;;18.10;99.90;;;;;;5134270;27;20043;-87
2022/05/06 10:50:16;;;;;;;11.48;5.55;;;18.30;99.90;;;;;;5116704;28;20079;-72
2022/05/06 10:52:43;;;;;;;7.22;5.60;;;18.80;99.90;;;;;;5135165;27;20076;-72
2022/05/06 10:55:12;;;;;;;7.25;5.28;;;19.30;99.90;;;;;;5137003;27;20083;-72
2022/05/06 10:57:55;;;;;;;7.25;4.30;;;19.70;99.90;;;;;;5138477;27;20039;-72
2022/05/06 11:00:22;;;;;;;9.05;4.93;;;19.90;99.90;;;;;;5138335;27;20083;-72
2022/05/06 11:02:49;;;;;;;7.35;4.35;;;19.90;99.00;;;;;;5137298;27;20051;-72
2022/05/06 11:05:16;;;;;;;6.60;4.30;;;20.00;99.20;;;;;;5120138;27;20053;-72
2022/05/06 11:07:44;;;;;;;12.80;4.68;;;20.20;99.20;;;;;;5120139;27;20505;-72
2022/05/06 11:10:11;;;;;;;5.40;4.10;;;20.60;99.40;;;;;;5137135;27;20053;-71
2022/05/06 11:12:41;;;;;;;5.60;4.30;;;20.90;98.90;;;;;;5140245;27;20039;-91
2022/05/06 11:15:08;;;;;;;6.80;3.92;;;21.10;99.30;;;;;;5104326;27;20043;-92
2022/05/06 11:17:35;;;;;;;7.25;4.10;;;20.70;98.30;;;;;;5137351;27;20049;-79
2022/05/06 11:20:17;;;;;;;4.53;3.40;;;20.10;98.10;;;;;;5120224;27;20111;-78
2022/05/06 11:22:50;;;;;;;6.55;3.10;;;19.80;98.60;;;;;;5136988;27;20086;-79
2022/05/06 11:25:15;;;;;;;6.85;3.17;;;19.70;98.30;;;;;;5136902;27;20055;-85
2022/05/06 11:27:41;;;;;;;5.20;3.03;;;19.90;98.40;;;;;;5136955;27;20043;-85
2022/05/06 11:30:08;;;;;;;4.65;3.33;;;20.30;98.40;;;;;;5136871;27;20136;-83
2022/05/06 11:32:34;;;;;;;4.65;3.40;;;20.70;98.20;;;;;;5119794;27;20035;-85
2022/05/06 11:35:32;;;;;;;4.18;2.90;;;21.00;98.00;;;;;;5119439;27;20068;-84
2022/05/06 11:37:59;;;;;;;4.28;2.53;;;21.30;98.60;;;;;;5119469;27;20051;-78
2022/05/06 11:42:56;;;;;;;4.22;1.67;;;21.10;97.30;;;;;;5137043;27;20055;-85
2022/05/06 11:48:10;;;;;;;2.55;1.30;;;21.30;97.40;;;;;;5136556;27;20054;-86
2022/05/06 11:50:38;;;;;;;2.78;1.40;;;21.30;97.40;;;;;;5137232;27;20130;-82
2022/05/06 11:53:08;;;;;;;2.17;1.40;;;21.00;97.30;;;;;;5136600;27;20042;-84
2022/05/06 11:55:36;;;;;;;3.10;1.80;;;21.20;97.60;;;;;;5136003;27;20043;-84
2022/05/06 11:58:06;;;;;;;6.38;2.15;;;21.10;97.80;;;;;;5119064;27;20043;-80
2022/05/06 12:00:32;;;;;;;3.53;2.03;;;21.40;97.70;;;;;;5118851;27;20103;-81
2022/05/06 12:03:12;;;;;;;3.50;1.80;;;21.80;97.50;;;;;;5136788;27;20100;-84
2022/05/06 12:05:39;;;;;;;3.30;1.95;;;21.80;97.60;;;;;;5118120;27;20486;-88
2022/05/06 12:08:07;;;;;;;5.80;2.30;;;21.90;97.70;;;;;;5136275;27;20043;-87
2022/05/06 12:10:38;;;;;;;5.80;1.77;;;22.00;97.40;;;;;;5136228;27;20047;-82
2022/05/06 12:13:08;;;;;;;4.93;1.98;;;22.20;97.50;;;;;;5118439;27;20091;-83
2022/05/06 12:15:39;;;;;;;3.58;2.30;;;22.20;97.60;;;;;;5119673;27;20080;-88
2022/05/06 12:18:18;;;;;;;8.68;2.03;;;21.80;97.30;;;;;;5135867;27;20093;-81
2022/05/06 12:20:46;;;;;;;2.45;1.80;;;21.80;97.70;;;;;;5136865;27;20049;-73
2022/05/06 12:23:13;;;;;;;6.15;2.67;;;22.40;97.70;;;;;;5135835;27;20047;-74
2022/05/06 12:25:40;;;;;;;3.50;2.10;;;22.70;97.50;;;;;;5118450;27;20053;-75
2022/05/06 12:28:15;;;;;;;5.53;2.60;;;22.80;97.60;;;;;;5137031;27;20501;-74
2022/05/06 12:30:42;;;;;;;6.22;2.53;;;23.10;97.60;;;;;;5135628;27;20058;-74
2022/05/06 12:33:13;;;;;;;3.38;2.50;;;23.80;97.60;;;;;;5135575;27;20047;-74
2022/05/06 12:35:58;;;;;;;3.72;1.80;;;24.30;97.10;;;;;;5118201;27;20049;-74
2022/05/06 12:38:25;;;;;;;1.65;1.17;;;24.80;96.80;;;;;;5135408;27;20066;-74
2022/05/06 12:40:51;;;;;;;5.60;1.30;;;25.00;96.80;;;;;;5136396;27;20039;-74
2022/05/06 12:43:25;;;;;;;2.65;0.80;;;24.80;96.60;;;;;;5135163;27;20401;-79
2022/05/06 12:45:56;;;;;;;2.83;0.98;;;24.40;96.60;;;;;;5134956;27;20053;-74
2022/05/06 12:51:06;;;;;;;2.85;1.05;;;24.40;96.50;;;;;;5135117;27;20100;-74
2022/05/06 12:53:36;;;;;;;4.20;1.10;;;24.60;96.60;;;;;;5136123;27;20047;-74
2022/05/06 12:56:03;;;;;;;2.17;0.90;;;25.00;96.20;;;;;;5134961;27;20047;-74
2022/05/06 12:58:29;;;;;;;3.20;1.10;;;25.30;96.20;;;;;;5136093;27;20132;-74
2022/05/06 13:00:58;;;;;;;1.67;1.05;;;25.10;96.40;;;;;;5135661;27;20103;-74
2022/05/06 13:03:24;;;;;;;2.40;0.73;;;25.10;96.10;;;;;;5134210;27;20581;-75
2022/05/06 13:05:51;;;;;;;2.03;1.20;;;25.30;96.70;;;;;;5134947;27;20050;-75
2022/05/06 13:08:17;;;;;;;4.25;1.67;;;25.80;96.50;;;;;;5134753;27;20078;-74
2022/05/06 13:10:42;;;;;;;3.78;1.30;;;26.00;96.50;;;;;;5135915;27;20457;-71
2022/05/06 13:13:08;;;;;;;2.25;1.70;;;25.90;96.40;;;;;;5135497;27;20497;-72
2022/05/06 13:15:34;;;;;;;2.90;1.45;;;26.00;95.90;;;;;;5134520;27;20399;-72
2022/05/06 13:18:00;;;;;;;3.10;1.70;;;25.60;96.00;;;;;;5134547;27;20508;-72
2022/05/06 13:20:25;;;;;;;6.68;1.60;;;25.30;96.10;;;;;;5134693;27;20107;-71
2022/05/06 13:22:51;;;;;;;4.30;1.92;;;25.20;96.30;;;;;;5135379;27;20126;-69
2022/05/06 13:25:17;;;;;;;3.58;2.20;;;24.60;96.40;;;;;;5169028;27;20039;-73
2022/05/06 13:27:43;;;;;;;5.13;2.60;;;24.30;96.60;;;;;;5135439;27;20131;-73
2022/05/06 13:30:09;;;;;;;5.50;2.55;;;24.40;96.70;;;;;;5134255;27;20053;-73